createdAt,value
2019-05-12T00:02:31.991Z,3.77
2019-05-12T00:05:05.746Z,4.30
2019-05-12T00:07:39.550Z,5.30
2019-05-12T00:10:13.179Z,4.30
2019-05-12T00:12:48.187Z,4.17
2019-05-12T00:15:22.763Z,4.62
2019-05-12T00:17:58.555Z,4.87
2019-05-12T00:20:31.940Z,4.10
2019-05-12T00:23:22.814Z,5.35
2019-05-12T00:25:42.455Z,3.52
2019-05-12T00:28:17.878Z,4.50
2019-05-12T00:30:52.503Z,3.60
2019-05-12T00:33:28.300Z,4.17
2019-05-12T00:36:02.135Z,3.95
2019-05-12T00:38:38.033Z,3.75
2019-05-12T00:41:11.195Z,3.50
2019-05-12T00:43:44.884Z,4.50
2019-05-12T00:46:18.649Z,3.65
2019-05-12T00:48:52.419Z,4.40
2019-05-12T00:51:28.615Z,3.30
2019-05-12T00:54:02.034Z,3.60
2019-05-12T00:56:35.767Z,3.42
2019-05-12T00:59:09.610Z,3.70
2019-05-12T01:01:43.407Z,3.58
2019-05-12T01:04:17.656Z,3.98
2019-05-12T01:06:52.041Z,3.37
2019-05-12T01:09:28.001Z,5.25
2019-05-12T01:12:01.815Z,3.80
2019-05-12T01:14:35.529Z,3.98
2019-05-12T01:17:09.252Z,4.25
2019-05-12T01:19:42.901Z,3.85
2019-05-12T01:22:18.567Z,3.37
2019-05-12T01:24:53.752Z,3.67
2019-05-12T01:27:28.769Z,4.30
2019-05-12T01:30:02.780Z,3.40
2019-05-12T01:32:38.605Z,3.80
2019-05-12T01:35:12.498Z,3.72
2019-05-12T01:37:47.930Z,3.42
2019-05-12T01:40:22.035Z,4.42
2019-05-12T01:42:58.197Z,3.60
2019-05-12T01:45:31.412Z,4.10
2019-05-12T01:48:05.114Z,3.85
2019-05-12T01:50:39.193Z,3.62
2019-05-12T01:53:13.094Z,3.75
2019-05-12T01:55:48.553Z,3.98
2019-05-12T01:58:22.568Z,3.92
2019-05-12T02:00:58.695Z,3.90
2019-05-12T02:03:31.823Z,3.70
2019-05-12T02:06:08.295Z,3.77
2019-05-12T02:08:52.571Z,3.92
2019-05-12T02:11:32.439Z,4.10
2019-05-12T02:14:09.314Z,3.50
2019-05-12T02:16:42.955Z,3.85
2019-05-12T02:19:17.840Z,4.30
2019-05-12T02:21:52.003Z,4.15
2019-05-12T02:24:29.793Z,3.50
2019-05-12T02:27:01.485Z,4.40
2019-05-12T02:29:35.108Z,4.00
2019-05-12T02:32:08.816Z,3.87
2019-05-12T02:34:45.569Z,4.08
2019-05-12T02:37:18.039Z,3.80
2019-05-12T02:39:55.315Z,4.22
2019-05-12T02:42:27.206Z,3.70
2019-05-12T02:45:00.949Z,4.22
2019-05-12T02:47:34.871Z,3.95
2019-05-12T02:50:09.820Z,3.92
2019-05-12T02:52:44.395Z,4.17
2019-05-12T02:55:18.170Z,4.08
2019-05-12T02:57:54.959Z,4.17
2019-05-12T03:00:27.675Z,4.67
2019-05-12T03:03:05.281Z,4.40
2019-05-12T03:05:37.848Z,4.12
2019-05-12T03:08:14.995Z,3.75
2019-05-12T03:10:49.470Z,5.47
2019-05-12T03:13:25.310Z,4.20
2019-05-12T03:15:58.602Z,4.33
2019-05-12T03:18:34.708Z,4.40
2019-05-12T03:21:08.077Z,4.15
2019-05-12T03:23:44.480Z,4.17
2019-05-12T03:26:17.207Z,4.20
2019-05-12T03:28:50.975Z,4.42
2019-05-12T03:31:30.952Z,4.62
2019-05-12T03:34:00.635Z,4.50
2019-05-12T03:36:41.623Z,4.58
2019-05-12T03:39:14.682Z,4.80
2019-05-12T03:41:47.053Z,4.25
2019-05-12T03:44:20.931Z,4.47
2019-05-12T03:46:54.645Z,5.95
2019-05-12T03:49:28.279Z,4.45
2019-05-12T03:52:04.985Z,4.87
2019-05-12T03:54:37.705Z,4.50
2019-05-12T03:57:14.742Z,4.37
2019-05-12T03:59:46.923Z,3.98
2019-05-12T04:02:20.949Z,4.20
2019-05-12T04:04:55.478Z,5.05
2019-05-12T04:07:29.398Z,5.62
2019-05-12T04:10:05.183Z,4.50
2019-05-12T04:12:38.464Z,4.80
2019-05-12T04:15:15.129Z,5.42
2019-05-12T04:17:47.971Z,4.37
2019-05-12T04:20:21.670Z,5.05
2019-05-12T04:22:55.880Z,5.50
2019-05-12T04:25:46.286Z,5.03
2019-05-12T04:28:05.221Z,4.67
2019-05-12T04:30:39.305Z,4.90
2019-05-12T04:33:15.612Z,4.60
2019-05-12T04:35:48.428Z,4.55
2019-05-12T04:38:24.831Z,5.28
2019-05-12T04:40:57.672Z,5.03
2019-05-12T04:43:31.269Z,5.42
2019-05-12T04:46:05.349Z,5.33
2019-05-12T04:48:39.020Z,5.22
2019-05-12T04:51:15.336Z,5.47
2019-05-12T04:53:48.478Z,6.17
2019-05-12T04:56:24.961Z,4.92
2019-05-12T04:58:58.165Z,7.25
2019-05-12T05:01:34.600Z,6.67
2019-05-12T05:04:07.343Z,8.83
2019-05-12T05:06:44.607Z,6.12
2019-05-12T05:09:17.039Z,5.40
2019-05-12T05:11:50.829Z,5.12
2019-05-12T05:14:24.891Z,6.75
2019-05-12T05:16:58.760Z,5.97
2019-05-12T05:19:33.768Z,5.97
2019-05-12T05:22:07.626Z,5.72
2019-05-12T05:24:41.703Z,6.97
2019-05-12T05:27:15.451Z,5.47
2019-05-12T05:29:49.139Z,6.40
2019-05-12T05:32:23.328Z,6.97
2019-05-12T05:34:57.918Z,6.25
2019-05-12T05:37:36.945Z,7.58
2019-05-12T05:40:08.489Z,6.78
2019-05-12T05:42:43.965Z,6.22
2019-05-12T05:45:23.367Z,5.87
2019-05-12T05:47:54.463Z,5.85
2019-05-12T05:50:29.738Z,6.45
2019-05-12T05:53:04.047Z,5.85
2019-05-12T05:55:37.985Z,6.83
2019-05-12T05:58:11.704Z,10.82
2019-05-12T06:00:45.394Z,7.97
2019-05-12T06:03:23.433Z,8.83
2019-05-12T06:05:54.633Z,7.58
2019-05-12T06:08:28.330Z,7.83
2019-05-12T06:11:04.454Z,6.60
2019-05-12T06:13:40.145Z,6.95
2019-05-12T06:16:20.137Z,7.72
2019-05-12T06:18:48.716Z,7.28
2019-05-12T06:21:24.192Z,7.83
2019-05-12T06:23:58.476Z,6.90
2019-05-12T06:26:35.693Z,7.47
2019-05-12T06:29:11.202Z,6.75
2019-05-12T06:31:44.322Z,8.85
2019-05-12T06:34:20.810Z,8.05
2019-05-12T06:36:57.056Z,7.33
2019-05-12T06:39:29.012Z,8.95
2019-05-12T06:42:12.262Z,12.53
2019-05-12T06:44:38.246Z,9.83
2019-05-12T06:47:14.176Z,6.20
2019-05-12T06:49:48.906Z,10.48
2019-05-12T06:52:23.693Z,7.10
2019-05-12T06:54:57.522Z,6.72
2019-05-12T06:57:31.614Z,8.53
2019-05-12T07:00:06.243Z,5.87
2019-05-12T07:02:49.135Z,8.68
2019-05-12T07:05:15.766Z,8.68
2019-05-12T07:07:49.455Z,9.20
2019-05-12T07:10:36.894Z,8.30
2019-05-12T07:13:04.573Z,7.60
2019-05-12T07:15:38.134Z,6.60
2019-05-12T07:18:14.042Z,10.35
2019-05-12T07:20:48.335Z,9.55
2019-05-12T07:23:25.779Z,13.50
2019-05-12T07:25:57.447Z,7.60
2019-05-12T07:28:36.321Z,10.28
2019-05-12T07:31:06.582Z,9.95
2019-05-12T07:33:41.904Z,7.35
2019-05-12T07:36:16.157Z,7.53
2019-05-12T07:38:49.828Z,6.97
2019-05-12T07:41:24.679Z,8.93
2019-05-12T07:44:00.821Z,8.53
2019-05-12T07:46:34.329Z,8.90
2019-05-12T07:49:08.265Z,6.90
2019-05-12T07:51:44.539Z,9.45
2019-05-12T07:54:17.837Z,8.90
2019-05-12T07:56:53.986Z,10.03
2019-05-12T07:59:35.773Z,9.35
2019-05-12T08:02:03.856Z,8.70
2019-05-12T08:04:39.920Z,7.03
2019-05-12T08:07:14.552Z,8.20
2019-05-12T08:09:48.679Z,7.78
2019-05-12T08:12:23.769Z,9.23
2019-05-12T08:14:59.460Z,10.90
2019-05-12T08:17:33.698Z,9.45
2019-05-12T08:20:07.907Z,9.83
2019-05-12T08:22:43.782Z,11.18
2019-05-12T08:25:18.894Z,8.40
2019-05-12T08:28:04.174Z,10.38
2019-05-12T08:30:40.261Z,8.40
2019-05-12T08:33:11.283Z,8.40
2019-05-12T08:35:45.035Z,8.28
2019-05-12T08:38:18.887Z,10.08
2019-05-12T08:40:54.322Z,10.28
2019-05-12T08:43:28.428Z,9.33
2019-05-12T08:46:10.006Z,8.53
2019-05-12T08:48:37.594Z,8.48
2019-05-12T08:51:14.635Z,9.33
2019-05-12T08:53:47.171Z,12.43
2019-05-12T08:56:23.965Z,8.88
2019-05-12T08:58:56.327Z,9.08
2019-05-12T09:01:30.859Z,11.73
2019-05-12T09:04:11.177Z,9.05
2019-05-12T09:06:40.291Z,11.97
2019-05-12T09:09:14.105Z,10.85
2019-05-12T09:11:48.079Z,9.70
2019-05-12T09:14:23.938Z,10.78
2019-05-12T09:17:02.697Z,11.15
2019-05-12T09:19:33.471Z,10.00
2019-05-12T09:22:16.214Z,9.05
2019-05-12T09:24:44.090Z,9.30
2019-05-12T09:27:18.007Z,10.75
2019-05-12T09:29:53.893Z,13.58
2019-05-12T09:32:27.370Z,9.50
2019-05-12T09:35:03.801Z,13.72
2019-05-12T09:37:40.330Z,8.75
2019-05-12T09:40:14.864Z,9.63
2019-05-12T09:42:49.279Z,9.23
2019-05-12T09:45:24.233Z,12.75
2019-05-12T09:47:58.908Z,9.03
2019-05-12T09:50:34.110Z,12.00
2019-05-12T09:53:11.386Z,8.48
2019-05-12T09:55:43.896Z,10.90
2019-05-12T09:58:23.090Z,8.73
2019-05-12T10:00:54.374Z,10.48
2019-05-12T10:03:30.829Z,10.48
2019-05-12T10:06:03.902Z,10.60
2019-05-12T10:08:38.100Z,10.18
2019-05-12T10:11:16.682Z,10.28
2019-05-12T10:13:47.475Z,8.95
2019-05-12T10:16:21.195Z,9.03
2019-05-12T10:18:55.045Z,10.00
2019-05-12T10:21:28.883Z,9.50
2019-05-12T10:24:05.084Z,8.18
2019-05-12T10:26:41.202Z,8.85
2019-05-12T10:29:19.843Z,9.58
2019-05-12T10:31:49.613Z,7.78
2019-05-12T10:34:24.145Z,7.37
2019-05-12T10:36:57.929Z,8.03
2019-05-12T10:39:33.480Z,8.65
2019-05-12T10:42:08.496Z,8.00
2019-05-12T10:44:43.724Z,9.63
2019-05-12T10:47:17.667Z,7.87
2019-05-12T10:49:53.528Z,8.00
2019-05-12T10:52:29.540Z,8.58
2019-05-12T10:55:04.422Z,9.75
2019-05-12T10:57:39.753Z,10.32
2019-05-12T11:00:19.692Z,8.30
2019-05-12T11:02:50.238Z,10.80
2019-05-12T11:05:26.088Z,10.10
2019-05-12T11:08:00.221Z,8.13
2019-05-12T11:10:36.524Z,7.37
2019-05-12T11:13:10.316Z,7.25
2019-05-12T11:15:46.155Z,9.28
2019-05-12T11:18:26.202Z,9.70
2019-05-12T11:20:56.771Z,7.08
2019-05-12T11:23:34.305Z,7.80
2019-05-12T11:26:07.743Z,7.10
2019-05-12T11:28:41.817Z,9.35
2019-05-12T11:31:15.661Z,7.75
2019-05-12T11:33:49.813Z,8.95
2019-05-12T11:36:25.406Z,8.65
2019-05-12T11:38:59.283Z,7.10
2019-05-12T11:41:36.166Z,7.10
2019-05-12T11:44:10.029Z,6.70
2019-05-12T11:46:44.286Z,6.60
2019-05-12T11:49:21.858Z,6.22
2019-05-12T11:51:54.448Z,8.25
2019-05-12T11:54:28.449Z,7.45
2019-05-12T11:57:02.433Z,7.60
2019-05-12T11:59:36.281Z,7.53
2019-05-12T12:02:10.055Z,11.75
2019-05-12T12:04:47.053Z,6.80
2019-05-12T12:07:20.877Z,7.65
2019-05-12T12:09:59.277Z,6.40
2019-05-12T12:12:30.561Z,6.78
2019-05-12T12:15:04.763Z,6.65
2019-05-12T12:17:38.539Z,6.85
2019-05-12T12:20:13.951Z,6.20
2019-05-12T12:22:48.314Z,8.83
2019-05-12T12:25:27.173Z,6.83
2019-05-12T12:28:01.019Z,6.35
2019-05-12T12:30:34.784Z,6.47
2019-05-12T12:33:10.124Z,7.78
2019-05-12T12:35:44.534Z,6.97
2019-05-12T12:38:18.435Z,9.38
2019-05-12T12:40:53.565Z,6.60
2019-05-12T12:43:27.506Z,7.40
2019-05-12T12:46:10.626Z,6.25
2019-05-12T12:48:44.399Z,7.25
2019-05-12T12:51:18.195Z,7.00
2019-05-12T12:53:54.078Z,6.60
2019-05-12T12:56:30.045Z,6.10
2019-05-12T12:59:10.398Z,6.58
2019-05-12T13:01:39.067Z,6.80
2019-05-12T13:04:13.307Z,5.92
2019-05-12T13:06:47.090Z,6.12
2019-05-12T13:09:24.505Z,6.33
2019-05-12T13:11:57.798Z,6.08
2019-05-12T13:14:36.453Z,6.92
2019-05-12T13:17:08.518Z,7.92
2019-05-12T13:19:43.682Z,6.42
2019-05-12T13:22:19.110Z,6.08
2019-05-12T13:24:53.175Z,6.53
2019-05-12T13:27:29.042Z,5.97
2019-05-12T13:30:05.276Z,6.08
2019-05-12T13:32:38.431Z,5.80
2019-05-12T13:35:16.313Z,5.70
2019-05-12T13:37:50.246Z,5.85
2019-05-12T13:40:23.541Z,6.17
2019-05-12T13:42:57.318Z,5.95
2019-05-12T13:45:33.473Z,6.42
2019-05-12T13:48:09.634Z,5.87
2019-05-12T13:50:43.322Z,5.25
2019-05-12T13:53:17.255Z,8.80
2019-05-12T13:55:51.190Z,6.15
2019-05-12T13:58:28.260Z,7.47
2019-05-12T14:01:13.489Z,5.80
2019-05-12T14:03:40.022Z,6.08
2019-05-12T14:06:13.789Z,5.97
2019-05-12T14:08:46.685Z,5.58
2019-05-12T14:11:20.327Z,8.95
2019-05-12T14:13:54.193Z,6.92
2019-05-12T14:16:27.801Z,6.35
2019-05-12T14:19:03.516Z,5.87
2019-05-12T14:21:41.074Z,7.90
2019-05-12T14:24:14.081Z,6.33
2019-05-12T14:26:49.493Z,6.80
2019-05-12T14:29:26.629Z,7.53
2019-05-12T14:32:02.317Z,8.68
2019-05-12T14:34:34.702Z,7.45
2019-05-12T14:37:10.431Z,6.67
2019-05-12T14:39:46.216Z,8.70
2019-05-12T14:42:19.245Z,8.58
2019-05-12T14:44:54.038Z,8.18
2019-05-12T14:47:30.039Z,8.80
2019-05-12T14:50:03.934Z,10.50
2019-05-12T14:52:38.360Z,8.68
2019-05-12T14:55:13.829Z,10.05
2019-05-12T14:57:47.860Z,9.05
2019-05-12T15:00:24.176Z,8.65
2019-05-12T15:02:59.130Z,7.97
2019-05-12T15:05:32.998Z,9.03
2019-05-12T15:08:06.885Z,8.98
2019-05-12T15:10:40.787Z,7.62
2019-05-12T15:13:14.645Z,7.15
2019-05-12T15:15:50.172Z,7.62
2019-05-12T15:18:24.033Z,7.60
2019-05-12T15:20:58.323Z,9.28
2019-05-12T15:23:35.095Z,6.87
2019-05-12T15:26:09.651Z,8.18
2019-05-12T15:28:43.433Z,8.55
2019-05-12T15:31:17.061Z,8.23
2019-05-12T15:33:50.859Z,7.03
2019-05-12T15:36:24.593Z,5.97
2019-05-12T15:38:59.071Z,5.70
2019-05-12T15:41:33.196Z,7.30
2019-05-12T15:44:06.872Z,6.47
2019-05-12T15:46:43.456Z,8.38
2019-05-12T15:49:15.893Z,7.22
2019-05-12T15:51:54.097Z,6.42
2019-05-12T15:54:25.094Z,5.28
2019-05-12T15:56:58.913Z,6.17
2019-05-12T15:59:34.529Z,7.25
2019-05-12T16:02:13.398Z,6.60
2019-05-12T16:04:48.227Z,5.92
2019-05-12T16:07:19.427Z,7.22
2019-05-12T16:09:54.629Z,6.83
2019-05-12T16:12:28.717Z,6.17
2019-05-12T16:15:04.538Z,6.20
2019-05-12T16:17:38.439Z,6.70
2019-05-12T16:20:14.208Z,6.22
2019-05-12T16:22:47.955Z,6.72
2019-05-12T16:25:28.912Z,6.72
2019-05-12T16:27:57.139Z,6.08
2019-05-12T16:30:30.876Z,8.88
2019-05-12T16:33:04.772Z,5.35
2019-05-12T16:35:38.644Z,5.92
2019-05-12T16:38:19.439Z,6.60
2019-05-12T16:40:49.844Z,5.25
2019-05-12T16:43:23.946Z,5.30
2019-05-12T16:45:57.696Z,6.87
2019-05-12T16:48:33.976Z,5.47
2019-05-12T16:51:07.740Z,5.87
2019-05-12T16:53:43.604Z,6.60
2019-05-12T16:56:19.848Z,6.10
2019-05-12T16:58:54.240Z,6.50
2019-05-12T17:01:29.439Z,5.33
2019-05-12T17:04:04.329Z,5.87
2019-05-12T17:06:38.716Z,5.55
2019-05-12T17:09:13.428Z,6.35
2019-05-12T17:11:52.600Z,5.90
2019-05-12T17:14:23.462Z,5.65
2019-05-12T17:16:57.333Z,5.10
2019-05-12T17:19:31.119Z,5.83
2019-05-12T17:22:05.074Z,5.30
2019-05-12T17:24:38.948Z,5.40
2019-05-12T17:27:15.756Z,7.25
2019-05-12T17:29:49.203Z,6.20
2019-05-12T17:32:23.903Z,15.35
2019-05-12T17:34:57.842Z,14.98
2019-05-12T17:37:36.766Z,20.60
2019-05-12T17:40:09.259Z,23.42
2019-05-12T17:42:44.093Z,35.75
2019-05-12T17:45:20.580Z,41.25
2019-05-12T17:47:55.038Z,42.50
2019-05-12T17:50:29.217Z,49.03
2019-05-12T17:53:04.468Z,42.08
2019-05-12T17:55:42.667Z,40.75
2019-05-12T17:58:13.937Z,29.23
2019-05-12T18:00:51.880Z,29.82
2019-05-12T18:03:25.656Z,33.95
2019-05-12T18:05:58.795Z,32.17
2019-05-12T18:08:35.659Z,17.75
2019-05-12T18:11:11.324Z,26.87
2019-05-12T18:13:43.450Z,22.70
2019-05-12T18:16:21.959Z,23.52
2019-05-12T18:18:54.485Z,24.30
2019-05-12T18:21:31.053Z,24.72
2019-05-12T18:24:08.855Z,25.10
2019-05-12T18:26:39.437Z,23.55
2019-05-12T18:29:14.665Z,24.12
2019-05-12T18:31:48.720Z,23.35
2019-05-12T18:34:25.110Z,19.23
2019-05-12T18:36:59.653Z,21.15
2019-05-12T18:39:34.461Z,18.23
2019-05-12T18:42:08.171Z,16.93
2019-05-12T18:44:43.919Z,15.78
2019-05-12T18:47:23.300Z,18.85
2019-05-12T18:49:53.823Z,17.70
2019-05-12T18:52:29.401Z,18.17
2019-05-12T18:55:03.326Z,17.15
2019-05-12T18:57:39.102Z,17.10
2019-05-12T19:00:20.206Z,14.78
2019-05-12T19:02:54.661Z,12.10
2019-05-12T19:05:30.897Z,14.33
2019-05-12T19:08:05.347Z,12.80
2019-05-12T19:10:44.431Z,12.47
2019-05-12T19:13:16.053Z,13.10
2019-05-12T19:15:52.848Z,10.15
2019-05-12T19:18:32.685Z,11.18
2019-05-12T19:21:00.923Z,13.30
2019-05-12T19:23:37.262Z,10.05
2019-05-12T19:26:10.749Z,12.80
2019-05-12T19:28:53.053Z,10.45
2019-05-12T19:31:20.172Z,8.05
2019-05-12T19:34:14.403Z,9.38
2019-05-12T19:36:30.147Z,11.53
2019-05-12T19:39:06.155Z,8.28
2019-05-12T19:41:40.914Z,9.35
2019-05-12T19:44:14.873Z,7.35
2019-05-12T19:46:50.313Z,6.62
2019-05-12T19:49:26.150Z,7.92
2019-05-12T19:51:59.480Z,9.63
2019-05-12T19:54:36.316Z,6.37
2019-05-12T19:57:15.560Z,6.55
2019-05-12T19:59:50.949Z,6.53
2019-05-12T20:02:19.929Z,8.28
2019-05-12T20:04:56.698Z,6.67
2019-05-12T20:07:29.009Z,8.10
2019-05-12T20:10:04.650Z,7.22
2019-05-12T20:12:39.742Z,6.45
2019-05-12T20:15:15.013Z,6.30
2019-05-12T20:17:49.476Z,7.97
2019-05-12T20:20:26.580Z,8.00
2019-05-12T20:23:00.747Z,5.20
2019-05-12T20:25:34.607Z,4.67
2019-05-12T20:28:11.303Z,5.28
2019-05-12T20:30:44.166Z,7.45
2019-05-12T20:33:17.974Z,7.53
2019-05-12T20:35:54.467Z,4.62
2019-05-12T20:38:34.022Z,5.00
2019-05-12T20:41:04.758Z,7.95
2019-05-12T20:43:41.303Z,5.78
2019-05-12T20:46:21.847Z,5.80
2019-05-12T20:48:50.616Z,4.87
2019-05-12T20:51:24.589Z,5.12
2019-05-12T20:53:58.674Z,5.70
2019-05-12T20:56:34.358Z,5.22
2019-05-12T20:59:08.070Z,4.60
2019-05-12T21:01:43.887Z,5.78
2019-05-12T21:04:22.269Z,4.17
2019-05-12T21:06:54.204Z,6.50
2019-05-12T21:09:28.298Z,3.98
2019-05-12T21:12:02.254Z,5.75
2019-05-12T21:14:35.947Z,5.00
2019-05-12T21:17:14.538Z,4.05
2019-05-12T21:19:55.553Z,4.33
2019-05-12T21:22:20.635Z,4.30
2019-05-12T21:24:54.711Z,4.65
2019-05-12T21:27:28.367Z,4.35
2019-05-12T21:30:10.042Z,3.67
2019-05-12T21:32:37.753Z,3.47
2019-05-12T21:35:19.050Z,4.47
2019-05-12T21:37:48.861Z,4.03
2019-05-12T21:40:30.461Z,3.35
2019-05-12T21:42:58.492Z,3.77
2019-05-12T21:45:33.902Z,3.47
2019-05-12T21:48:07.656Z,4.10
2019-05-12T21:50:44.117Z,3.08
2019-05-12T21:53:20.522Z,4.12
2019-05-12T21:55:55.146Z,3.22
2019-05-12T21:58:30.585Z,3.45
2019-05-12T22:01:07.589Z,3.22
2019-05-12T22:03:45.904Z,3.00
2019-05-12T22:06:21.747Z,3.30
2019-05-12T22:09:01.163Z,4.45
2019-05-12T22:11:35.153Z,3.67
2019-05-12T22:14:09.134Z,2.95
2019-05-12T22:16:46.789Z,3.12
2019-05-12T22:19:20.318Z,3.10
2019-05-12T22:21:54.189Z,2.85
2019-05-12T22:24:37.109Z,3.52
2019-05-12T22:27:05.168Z,3.77
2019-05-12T22:29:43.591Z,3.95
2019-05-12T22:32:19.018Z,3.05
2019-05-12T22:34:54.661Z,3.08
2019-05-12T22:37:29.462Z,3.12
2019-05-12T22:40:06.299Z,2.62
2019-05-12T22:42:39.469Z,3.30
2019-05-12T22:45:15.339Z,2.60
2019-05-12T22:47:57.320Z,2.90
2019-05-12T22:50:32.810Z,3.00
2019-05-12T22:53:04.459Z,2.62
2019-05-12T22:55:39.996Z,3.55
2019-05-12T22:58:18.239Z,3.37
2019-05-12T23:00:51.227Z,3.00
2019-05-12T23:03:25.394Z,2.55
2019-05-12T23:06:01.536Z,2.50
2019-05-12T23:08:38.680Z,2.70
2019-05-12T23:11:10.151Z,2.87
2019-05-12T23:13:44.013Z,2.72
2019-05-12T23:16:19.221Z,3.00
2019-05-12T23:18:53.817Z,2.27
2019-05-12T23:21:27.759Z,2.17
2019-05-12T23:24:03.810Z,2.40
2019-05-12T23:26:41.775Z,2.58
2019-05-12T23:29:14.585Z,2.35
2019-05-12T23:31:48.388Z,2.98
2019-05-12T23:34:23.202Z,3.47
2019-05-12T23:36:59.997Z,2.15
2019-05-12T23:39:37.997Z,2.37
2019-05-12T23:42:08.444Z,2.98
2019-05-12T23:44:44.221Z,2.15
2019-05-12T23:47:18.187Z,2.50
2019-05-12T23:49:53.186Z,2.37
2019-05-12T23:52:27.183Z,2.67
2019-05-12T23:55:00.925Z,2.08
2019-05-12T23:57:34.639Z,2.17
